RYR465 LBSF-EDDF
Flight info
| Callsign | RYR465 |
|---|---|
| Flight time | N/A |
| Altitude | 36000 |
| Route | OGOTA N133 LOMOS DCT PADGU DCT MAVIR DCT STEIN DCT SUBEN DCT AKINI T161 DEBHI DEBHI1C |
| Aircraft | B738/M-SDE2E3FGHIRWXY/LB1 |
Departure
| Time | 2026-05-01 14:32 |
|---|---|
| Airport | Sofia Airport (LBSF) |
Arrival
| Time | N/A |
|---|---|
| Airport | Frankfurt Main Airport (EDDF) |
| Time | Latitude | Longitude | Altitude | Speed | Heading |
|---|---|---|---|---|---|
| 2026-05-01 13:46 | 42.69071 | 23.41297 | 1749 ft | 0 kts | 64° |
| 2026-05-01 13:47 | 42.69070 | 23.41297 | 1749 ft | 0 kts | 64° |
| 2026-05-01 14:23 | 42.69070 | 23.41296 | 1749 ft | 1 kts | 64° |
| 2026-05-01 14:23 | 42.69063 | 23.41278 | 1746 ft | 3 kts | 62° |
| 2026-05-01 14:24 | 42.69053 | 23.41254 | 1744 ft | 3 kts | 51° |
| 2026-05-01 14:24 | 42.69040 | 23.41236 | 1745 ft | 3 kts | 18° |
| 2026-05-01 14:24 | 42.69028 | 23.41234 | 1739 ft | 1 kts | 343° |
| 2026-05-01 14:27 | 42.69063 | 23.41219 | 1742 ft | 9 kts | 342° |
| 2026-05-01 14:27 | 42.69099 | 23.41203 | 1747 ft | 3 kts | 341° |
| 2026-05-01 14:28 | 42.69255 | 23.41157 | 1744 ft | 24 kts | 7° |
| 2026-05-01 14:28 | 42.69429 | 23.41205 | 1749 ft | 26 kts | 2° |
| 2026-05-01 14:28 | 42.69500 | 23.41023 | 1748 ft | 23 kts | 277° |
| 2026-05-01 14:28 | 42.69515 | 23.40800 | 1748 ft | 19 kts | 274° |
| 2026-05-01 14:29 | 42.69524 | 23.40617 | 1741 ft | 18 kts | 274° |
| 2026-05-01 14:29 | 42.69537 | 23.40431 | 1748 ft | 23 kts | 276° |
| 2026-05-01 14:30 | 42.69621 | 23.39604 | 1746 ft | 15 kts | 338° |
| 2026-05-01 14:30 | 42.69685 | 23.39604 | 1739 ft | 3 kts | 4° |
| 2026-05-01 14:30 | 42.69691 | 23.39604 | 1740 ft | 0 kts | 4° |
| 2026-05-01 14:31 | 42.69699 | 23.39605 | 1742 ft | 7 kts | 5° |
| 2026-05-01 14:31 | 42.69769 | 23.39695 | 1743 ft | 16 kts | 90° |
| 2026-05-01 14:31 | 42.69769 | 23.39725 | 1742 ft | 15 kts | 91° |
| 2026-05-01 14:32 | 42.69744 | 23.40185 | 1746 ft | 82 kts | 95° |
| 2026-05-01 14:32 | 42.69684 | 23.41214 | 1747 ft | 138 kts | 94° |
| 2026-05-01 14:32 | 42.69557 | 23.42633 | 2070 ft | 155 kts | 95° |
| 2026-05-01 14:32 | 42.69384 | 23.44110 | 2639 ft | 164 kts | 96° |
| 2026-05-01 14:33 | 42.69287 | 23.45722 | 3301 ft | 188 kts | 88° |
| 2026-05-01 14:33 | 42.69238 | 23.47665 | 3755 ft | 219 kts | 90° |
| 2026-05-01 14:33 | 42.69153 | 23.49812 | 4418 ft | 232 kts | 90° |
| 2026-05-01 14:33 | 42.69242 | 23.51952 | 5274 ft | 228 kts | 69° |
| 2026-05-01 14:34 | 42.70182 | 23.53733 | 5661 ft | 240 kts | 37° |
| 2026-05-01 14:34 | 42.71710 | 23.54688 | 6298 ft | 248 kts | 12° |
| 2026-05-01 14:34 | 42.73475 | 23.54747 | 6830 ft | 260 kts | 356° |
| 2026-05-01 14:34 | 42.75297 | 23.54416 | 7390 ft | 267 kts | 353° |
| 2026-05-01 14:35 | 42.77154 | 23.54017 | 7982 ft | 272 kts | 353° |
| 2026-05-01 14:35 | 42.79026 | 23.53634 | 8681 ft | 273 kts | 353° |
| 2026-05-01 14:35 | 42.80916 | 23.53270 | 9306 ft | 276 kts | 353° |
| 2026-05-01 14:35 | 42.82820 | 23.52915 | 9889 ft | 279 kts | 353° |
| 2026-05-01 14:36 | 42.84750 | 23.52561 | 9957 ft | 281 kts | 353° |
| 2026-05-01 14:36 | 42.86636 | 23.52027 | 9997 ft | 281 kts | 342° |
| 2026-05-01 14:36 | 42.88470 | 23.51083 | 10533 ft | 282 kts | 339° |
| 2026-05-01 14:36 | 42.90300 | 23.50036 | 11217 ft | 282 kts | 338° |
| 2026-05-01 14:37 | 42.92094 | 23.49001 | 11811 ft | 285 kts | 338° |
| 2026-05-01 14:37 | 42.93925 | 23.47954 | 12468 ft | 286 kts | 339° |
| 2026-05-01 14:37 | 42.95770 | 23.46914 | 13150 ft | 287 kts | 340° |
| 2026-05-01 14:37 | 42.97623 | 23.45877 | 13844 ft | 289 kts | 340° |
| 2026-05-01 14:38 | 42.99504 | 23.44828 | 14381 ft | 293 kts | 339° |
| 2026-05-01 14:38 | 43.01404 | 23.43774 | 15018 ft | 295 kts | 340° |
| 2026-05-01 14:38 | 43.03319 | 23.42715 | 15639 ft | 298 kts | 339° |
| 2026-05-01 14:38 | 43.05261 | 23.41641 | 16198 ft | 303 kts | 339° |
| 2026-05-01 14:39 | 43.07204 | 23.40567 | 16918 ft | 302 kts | 339° |
| 2026-05-01 14:39 | 43.09169 | 23.39480 | 17491 ft | 306 kts | 339° |
| 2026-05-01 14:39 | 43.11153 | 23.38382 | 18082 ft | 309 kts | 339° |
| 2026-05-01 14:39 | 43.13159 | 23.37271 | 18690 ft | 312 kts | 339° |
| 2026-05-01 14:40 | 43.13769 | 23.36933 | 18842 ft | 313 kts | 339° |
| 2026-05-01 14:40 | 43.15496 | 23.35977 | 19290 ft | 315 kts | 339° |
| 2026-05-01 14:40 | 43.17535 | 23.34847 | 19828 ft | 318 kts | 338° |
| 2026-05-01 14:40 | 43.18773 | 23.34160 | 20164 ft | 319 kts | 338° |
| 2026-05-01 14:41 | 43.20848 | 23.33018 | 20674 ft | 322 kts | 340° |
| 2026-05-01 14:41 | 43.23004 | 23.32373 | 21141 ft | 325 kts | 354° |
| 2026-05-01 14:41 | 43.25269 | 23.32143 | 21671 ft | 327 kts | 355° |
| 2026-05-01 14:41 | 43.27552 | 23.31915 | 22174 ft | 330 kts | 355° |
| 2026-05-01 14:42 | 43.29850 | 23.31657 | 22664 ft | 333 kts | 354° |
| 2026-05-01 14:42 | 43.32171 | 23.31379 | 23142 ft | 336 kts | 354° |
| 2026-05-01 14:42 | 43.34516 | 23.31089 | 23634 ft | 339 kts | 354° |
| 2026-05-01 14:42 | 43.36864 | 23.30792 | 24083 ft | 341 kts | 354° |
| 2026-05-01 14:43 | 43.39238 | 23.30491 | 24492 ft | 343 kts | 354° |
| 2026-05-01 14:43 | 43.41623 | 23.30189 | 24896 ft | 346 kts | 354° |
| 2026-05-01 14:43 | 43.43997 | 23.29888 | 25308 ft | 347 kts | 354° |
| 2026-05-01 14:43 | 43.46417 | 23.29582 | 25710 ft | 350 kts | 354° |
| 2026-05-01 14:44 | 43.48846 | 23.29274 | 26100 ft | 352 kts | 354° |
| 2026-05-01 14:44 | 43.53712 | 23.28662 | 27091 ft | 349 kts | 354° |
| 2026-05-01 14:44 | 43.56132 | 23.28364 | 27611 ft | 347 kts | 354° |
| 2026-05-01 14:45 | 43.58545 | 23.28067 | 28064 ft | 347 kts | 354° |
| 2026-05-01 14:45 | 43.63345 | 23.27476 | 28951 ft | 345 kts | 354° |
| 2026-05-01 14:45 | 43.65693 | 23.26870 | 29324 ft | 344 kts | 336° |
| 2026-05-01 14:46 | 43.67677 | 23.25076 | 29671 ft | 343 kts | 314° |
| 2026-05-01 14:46 | 43.70666 | 23.19780 | 29920 ft | 358 kts | 307° |
| 2026-05-01 14:46 | 43.72148 | 23.16963 | 29997 ft | 366 kts | 306° |
| 2026-05-01 14:47 | 43.75196 | 23.11172 | 30162 ft | 382 kts | 307° |
| 2026-05-01 14:48 | 43.80060 | 23.02023 | 30388 ft | 404 kts | 307° |
| 2026-05-01 14:48 | 43.85213 | 22.92375 | 30548 ft | 425 kts | 307° |
| 2026-05-01 14:49 | 43.88778 | 22.85690 | 30637 ft | 437 kts | 307° |
| 2026-05-01 14:49 | 43.92446 | 22.78796 | 30719 ft | 449 kts | 307° |
| 2026-05-01 14:50 | 43.99970 | 22.64599 | 31044 ft | 462 kts | 307° |
| 2026-05-01 14:51 | 44.01870 | 22.61003 | 31256 ft | 461 kts | 307° |
| 2026-05-01 14:51 | 44.05661 | 22.53815 | 31638 ft | 461 kts | 308° |
| 2026-05-01 14:52 | 44.09454 | 22.46605 | 31987 ft | 462 kts | 308° |
| 2026-05-01 14:52 | 44.11351 | 22.42993 | 32174 ft | 461 kts | 308° |
| 2026-05-01 14:52 | 44.15115 | 22.35813 | 32521 ft | 462 kts | 308° |
| 2026-05-01 14:53 | 44.17007 | 22.32197 | 32713 ft | 461 kts | 308° |
| 2026-05-01 14:53 | 44.18897 | 22.28580 | 32876 ft | 461 kts | 308° |
| 2026-05-01 14:53 | 44.20788 | 22.24957 | 32992 ft | 462 kts | 308° |
| 2026-05-01 14:54 | 44.24581 | 22.17678 | 32992 ft | 463 kts | 308° |
| 2026-05-01 14:54 | 44.28332 | 22.10456 | 32994 ft | 462 kts | 308° |
| 2026-05-01 14:55 | 44.32123 | 22.03143 | 32995 ft | 462 kts | 308° |
| 2026-05-01 14:55 | 44.35860 | 21.95916 | 32995 ft | 462 kts | 309° |
| 2026-05-01 14:56 | 44.39627 | 21.88612 | 32999 ft | 462 kts | 309° |
| 2026-05-01 14:56 | 44.43005 | 21.82047 | 32992 ft | 463 kts | 309° |
| 2026-05-01 14:57 | 44.46744 | 21.74752 | 33004 ft | 465 kts | 309° |
| 2026-05-01 14:57 | 44.52407 | 21.63668 | 33000 ft | 467 kts | 309° |
| 2026-05-01 14:58 | 44.56194 | 21.56243 | 32985 ft | 468 kts | 309° |
| 2026-05-01 14:58 | 44.59976 | 21.48809 | 32995 ft | 468 kts | 309° |
| 2026-05-01 14:59 | 44.63756 | 21.41359 | 32978 ft | 468 kts | 310° |
| 2026-05-01 14:59 | 44.67532 | 21.33897 | 32985 ft | 468 kts | 310° |
| 2026-05-01 15:00 | 44.73181 | 21.22699 | 32991 ft | 467 kts | 310° |
| 2026-05-01 15:01 | 44.76910 | 21.15283 | 32981 ft | 467 kts | 310° |
| 2026-05-01 15:01 | 44.80655 | 21.07816 | 32972 ft | 467 kts | 310° |
| 2026-05-01 15:02 | 44.84400 | 21.00328 | 32972 ft | 467 kts | 311° |
| 2026-05-01 15:02 | 44.88149 | 20.92815 | 32980 ft | 467 kts | 311° |
| 2026-05-01 15:03 | 44.91872 | 20.85334 | 32991 ft | 468 kts | 311° |
| 2026-05-01 15:03 | 44.95618 | 20.77788 | 32984 ft | 469 kts | 311° |
| 2026-05-01 15:04 | 44.99362 | 20.70224 | 32998 ft | 470 kts | 311° |
| 2026-05-01 15:04 | 45.03090 | 20.62673 | 33008 ft | 471 kts | 312° |
| 2026-05-01 15:05 | 45.06840 | 20.55058 | 32989 ft | 472 kts | 312° |
| 2026-05-01 15:05 | 45.10596 | 20.47410 | 32991 ft | 473 kts | 312° |
| 2026-05-01 15:06 | 45.14348 | 20.39749 | 32998 ft | 474 kts | 312° |
| 2026-05-01 15:06 | 45.18106 | 20.32055 | 32997 ft | 475 kts | 312° |
| 2026-05-01 15:07 | 45.21862 | 20.24345 | 33000 ft | 475 kts | 312° |
| 2026-05-01 15:07 | 45.25596 | 20.16658 | 33004 ft | 476 kts | 313° |
| 2026-05-01 15:08 | 45.29346 | 20.08920 | 33008 ft | 476 kts | 313° |
| 2026-05-01 15:08 | 45.33094 | 20.01162 | 33002 ft | 476 kts | 313° |
| 2026-05-01 15:09 | 45.36843 | 19.93383 | 33006 ft | 476 kts | 313° |
| 2026-05-01 15:09 | 45.40581 | 19.85604 | 33000 ft | 476 kts | 313° |
| 2026-05-01 15:10 | 45.44317 | 19.77809 | 33010 ft | 476 kts | 313° |
| 2026-05-01 15:10 | 45.49890 | 19.66140 | 33003 ft | 476 kts | 313° |
| 2026-05-01 15:11 | 45.55463 | 19.54425 | 33002 ft | 475 kts | 313° |
| 2026-05-01 15:12 | 45.59168 | 19.46609 | 33002 ft | 475 kts | 313° |
| 2026-05-01 15:12 | 45.64702 | 19.34895 | 33002 ft | 474 kts | 313° |
| 2026-05-01 15:14 | 45.73264 | 19.16674 | 33010 ft | 473 kts | 313° |
| 2026-05-01 15:14 | 45.78320 | 19.05860 | 33009 ft | 473 kts | 313° |
| 2026-05-01 15:15 | 45.85446 | 18.90547 | 33012 ft | 473 kts | 312° |
| 2026-05-01 15:16 | 45.92727 | 18.74814 | 33012 ft | 473 kts | 312° |
| 2026-05-01 15:18 | 46.01793 | 18.55099 | 33023 ft | 472 kts | 311° |
| 2026-05-01 15:19 | 46.08994 | 18.39341 | 33017 ft | 472 kts | 311° |
| 2026-05-01 15:19 | 46.14396 | 18.27462 | 33028 ft | 472 kts | 311° |
| 2026-05-01 15:20 | 46.19776 | 18.15581 | 33021 ft | 472 kts | 311° |
| 2026-05-01 15:21 | 46.23355 | 18.07648 | 33016 ft | 471 kts | 311° |
| 2026-05-01 15:21 | 46.26927 | 17.99708 | 33025 ft | 471 kts | 310° |
| 2026-05-01 15:22 | 46.32258 | 17.87818 | 33032 ft | 472 kts | 310° |
| 2026-05-01 15:22 | 46.34042 | 17.83831 | 33143 ft | 473 kts | 310° |
| 2026-05-01 15:22 | 46.35824 | 17.79838 | 33431 ft | 470 kts | 310° |
| 2026-05-01 15:23 | 46.37590 | 17.75870 | 33688 ft | 468 kts | 310° |
| 2026-05-01 15:23 | 46.39351 | 17.71911 | 33859 ft | 468 kts | 310° |
| 2026-05-01 15:23 | 46.41113 | 17.67947 | 33999 ft | 467 kts | 310° |
| 2026-05-01 15:23 | 46.42875 | 17.63979 | 34027 ft | 468 kts | 310° |
| 2026-05-01 15:24 | 46.46406 | 17.56014 | 34036 ft | 469 kts | 310° |
| 2026-05-01 15:24 | 46.49900 | 17.48101 | 34035 ft | 468 kts | 310° |
| 2026-05-01 15:25 | 46.53406 | 17.40140 | 34033 ft | 468 kts | 310° |
| 2026-05-01 15:25 | 46.56913 | 17.32153 | 34024 ft | 468 kts | 310° |
| 2026-05-01 15:26 | 46.60412 | 17.24162 | 34029 ft | 468 kts | 310° |
| 2026-05-01 15:26 | 46.63901 | 17.16172 | 34024 ft | 468 kts | 310° |
| 2026-05-01 15:27 | 46.67383 | 17.08174 | 34029 ft | 468 kts | 309° |
| 2026-05-01 15:28 | 46.72573 | 16.96210 | 34025 ft | 467 kts | 309° |
| 2026-05-01 15:28 | 46.76039 | 16.88190 | 34026 ft | 467 kts | 309° |
| 2026-05-01 15:29 | 46.81227 | 16.76147 | 34040 ft | 467 kts | 309° |
| 2026-05-01 15:30 | 46.88137 | 16.60021 | 34038 ft | 468 kts | 309° |
| 2026-05-01 15:31 | 46.98456 | 16.35759 | 34039 ft | 468 kts | 308° |
| 2026-05-01 15:32 | 47.05285 | 16.19584 | 34036 ft | 467 kts | 308° |
| 2026-05-01 15:34 | 47.15490 | 15.95236 | 34036 ft | 467 kts | 308° |